createdAt,value
2018-06-01T00:00:54.424Z,16.63
2018-06-01T00:03:21.821Z,17.73
2018-06-01T00:05:49.225Z,17.03
2018-06-01T00:08:16.621Z,17.10
2018-06-01T00:10:44.039Z,20.70
2018-06-01T00:13:11.505Z,20.07
2018-06-01T00:15:38.893Z,17.77
2018-06-01T00:18:06.334Z,17.67
2018-06-01T00:20:33.728Z,17.57
2018-06-01T00:23:01.139Z,19.63
2018-06-01T00:25:28.530Z,24.30
2018-06-01T00:27:55.924Z,20.97
2018-06-01T00:30:23.332Z,18.97
2018-06-01T00:32:50.732Z,18.57
2018-06-01T00:35:18.160Z,24.03
2018-06-01T00:37:45.565Z,19.67
2018-06-01T00:40:12.963Z,19.50
2018-06-01T00:42:40.400Z,20.70
2018-06-01T00:45:07.784Z,20.20
2018-06-01T00:47:35.444Z,19.50
2018-06-01T00:50:02.870Z,22.53
2018-06-01T00:52:30.261Z,19.93
2018-06-01T00:55:09.525Z,21.47
2018-06-01T00:57:36.923Z,20.20
2018-06-01T01:00:04.341Z,21.27
2018-06-01T01:02:31.739Z,19.80
2018-06-01T01:04:59.149Z,20.20
2018-06-01T01:07:26.557Z,22.20
2018-06-01T01:09:53.965Z,21.27
2018-06-01T01:12:22.201Z,26.37
2018-06-01T01:14:49.597Z,23.53
2018-06-01T01:17:18.853Z,22.90
2018-06-01T01:19:46.257Z,24.77
2018-06-01T01:22:13.670Z,22.67
2018-06-01T01:24:41.081Z,20.93
2018-06-01T01:27:08.487Z,22.43
2018-06-01T01:29:35.877Z,24.23
2018-06-01T01:32:03.285Z,24.33
2018-06-01T01:34:30.691Z,20.93
2018-06-01T01:36:58.134Z,21.97
2018-06-01T01:39:25.533Z,24.90
2018-06-01T01:41:52.933Z,21.40
2018-06-01T01:44:20.361Z,21.20
2018-06-01T01:46:47.773Z,20.00
2018-06-01T01:49:15.174Z,24.27
2018-06-01T01:51:42.601Z,25.73
2018-06-01T01:54:10.001Z,23.03
2018-06-01T01:56:37.404Z,21.73
2018-06-01T01:59:04.813Z,21.57
2018-06-01T02:01:32.226Z,22.73
2018-06-01T02:03:59.624Z,22.80
2018-06-01T02:06:27.030Z,23.23
2018-06-01T02:08:54.441Z,26.23
2018-06-01T02:11:21.833Z,22.47
2018-06-01T02:13:49.280Z,27.13
2018-06-01T02:16:16.677Z,24.30
2018-06-01T02:18:44.085Z,20.10
2018-06-01T02:21:11.519Z,22.30
2018-06-01T02:23:38.975Z,20.33
2018-06-01T02:26:06.381Z,22.17
2018-06-01T02:28:33.773Z,22.03
2018-06-01T02:31:01.175Z,23.33
2018-06-01T02:33:28.578Z,21.07
2018-06-01T02:35:55.973Z,19.20
2018-06-01T02:38:23.404Z,21.70
2018-06-01T02:40:51.154Z,20.00
2018-06-01T02:43:18.545Z,23.83
2018-06-01T02:45:45.951Z,21.83
2018-06-01T02:48:13.349Z,19.53
2018-06-01T02:50:40.773Z,22.53
2018-06-01T02:53:08.243Z,21.80
2018-06-01T02:55:35.646Z,22.03
2018-06-01T02:58:03.037Z,19.13
2018-06-01T03:00:30.473Z,20.00
2018-06-01T03:02:57.879Z,19.03
2018-06-01T03:05:25.294Z,19.27
2018-06-01T03:07:52.744Z,20.53
2018-06-01T03:10:20.153Z,23.07
2018-06-01T03:12:47.557Z,21.03
2018-06-01T03:15:14.978Z,17.53
2018-06-01T03:17:42.417Z,19.63
2018-06-01T03:20:09.843Z,20.90
2018-06-01T03:22:37.245Z,20.77
2018-06-01T03:25:04.645Z,20.63
2018-06-01T03:27:32.041Z,21.20
2018-06-01T03:29:59.462Z,19.33
2018-06-01T03:32:26.865Z,18.93
2018-06-01T03:34:54.277Z,17.30
2018-06-01T03:37:21.721Z,17.73
2018-06-01T03:39:49.122Z,20.27
2018-06-01T03:42:16.521Z,20.23
2018-06-01T03:44:43.937Z,19.83
2018-06-01T03:47:11.358Z,23.00
2018-06-01T03:49:38.765Z,19.87
2018-06-01T03:52:06.575Z,22.33
2018-06-01T03:54:34.000Z,25.20
2018-06-01T03:57:01.424Z,24.60
2018-06-01T03:59:28.817Z,20.03
2018-06-01T04:01:56.215Z,17.63
2018-06-01T04:04:23.629Z,17.50
2018-06-01T04:06:51.025Z,19.40
2018-06-01T04:09:18.438Z,29.93
2018-06-01T04:11:45.833Z,16.27
2018-06-01T04:14:14.089Z,16.27
2018-06-01T04:16:41.493Z,18.60
2018-06-01T04:19:08.888Z,13.70
2018-06-01T04:21:36.334Z,29.23
2018-06-01T04:24:03.727Z,22.10
2018-06-01T04:26:31.153Z,19.63
2018-06-01T04:28:58.561Z,26.57
2018-06-01T04:31:25.965Z,18.00
2018-06-01T04:33:53.349Z,26.70
2018-06-01T04:36:20.763Z,64.07
2018-06-01T04:38:48.176Z,21.50
2018-06-01T04:41:15.554Z,21.73
2018-06-01T04:43:42.973Z,10.10
2018-06-01T04:46:10.389Z,10.53
2018-06-01T04:48:37.785Z,12.23
2018-06-01T04:51:05.189Z,17.23
2018-06-01T04:53:32.589Z,11.07
2018-06-01T04:56:00.009Z,11.03
2018-06-01T04:58:27.389Z,11.10
2018-06-01T05:00:54.825Z,13.80
2018-06-01T05:03:22.229Z,13.30
2018-06-01T05:05:49.630Z,14.33
2018-06-01T05:08:17.025Z,13.70
2018-06-01T05:10:44.421Z,16.10
2018-06-01T05:13:11.849Z,13.73
2018-06-01T05:15:39.261Z,14.50
2018-06-01T05:18:06.673Z,18.70
2018-06-01T05:20:34.068Z,12.13
2018-06-01T05:23:01.498Z,17.33
2018-06-01T05:25:28.893Z,16.23
2018-06-01T05:27:56.305Z,18.80
2018-06-01T05:30:23.716Z,25.73
2018-06-01T05:32:51.107Z,25.50
2018-06-01T05:35:18.544Z,34.23
2018-06-01T05:37:45.955Z,28.60
2018-06-01T05:40:13.359Z,26.60
2018-06-01T05:42:40.753Z,29.50
2018-06-01T05:45:08.150Z,34.87
2018-06-01T05:47:35.573Z,38.33
2018-06-01T05:50:02.961Z,44.30
2018-06-01T05:52:30.364Z,44.17
2018-06-01T05:54:57.768Z,35.00
2018-06-01T05:57:25.161Z,28.13
2018-06-01T05:59:52.565Z,24.37
2018-06-01T06:02:19.973Z,31.20
2018-06-01T06:04:47.373Z,48.47
2018-06-01T06:07:14.787Z,54.90
2018-06-01T06:09:42.229Z,60.17
2018-06-01T06:12:09.611Z,59.10
2018-06-01T06:14:37.029Z,54.10
2018-06-01T06:17:04.458Z,57.30
2018-06-01T06:19:31.857Z,50.77
2018-06-01T06:21:59.262Z,47.77
2018-06-01T06:24:26.661Z,53.90
2018-06-01T06:26:54.069Z,55.17
2018-06-01T06:29:21.461Z,55.60
2018-06-01T06:31:48.868Z,52.87
2018-06-01T06:34:16.266Z,48.20
2018-06-01T06:36:43.667Z,66.03
2018-06-01T06:39:11.873Z,59.70
2018-06-01T06:41:39.285Z,59.17
2018-06-01T06:44:06.686Z,58.93
2018-06-01T06:46:34.105Z,62.03
2018-06-01T06:49:01.518Z,58.00
2018-06-01T06:51:28.913Z,47.83
2018-06-01T06:53:57.493Z,52.20
2018-06-01T06:56:24.898Z,47.47
2018-06-01T06:58:52.290Z,52.10
2018-06-01T07:01:19.705Z,51.00
2018-06-01T07:03:47.107Z,48.10
2018-06-01T07:06:14.510Z,42.37
2018-06-01T07:08:41.905Z,45.20
2018-06-01T07:11:09.319Z,43.13
2018-06-01T07:13:36.709Z,42.60
2018-06-01T07:16:04.106Z,44.37
2018-06-01T07:18:31.510Z,38.33
2018-06-01T07:20:58.908Z,39.57
2018-06-01T07:23:26.317Z,35.40
2018-06-01T07:25:53.716Z,32.77
2018-06-01T07:28:21.108Z,31.83
2018-06-01T07:30:48.528Z,32.47
2018-06-01T07:33:15.959Z,33.57
2018-06-01T07:35:43.321Z,33.23
2018-06-01T07:38:10.717Z,35.67
2018-06-01T07:40:38.141Z,38.00
2018-06-01T07:43:05.549Z,33.83
2018-06-01T07:45:32.991Z,35.13
2018-06-01T07:48:00.457Z,41.00
2018-06-01T07:50:27.850Z,34.10
2018-06-01T07:52:55.262Z,36.40
2018-06-01T07:55:22.669Z,39.17
2018-06-01T07:57:50.085Z,39.30
2018-06-01T08:00:17.487Z,31.73
2018-06-01T08:02:44.882Z,35.63
2018-06-01T08:05:12.293Z,27.90
2018-06-01T08:07:39.705Z,25.13
2018-06-01T08:10:07.114Z,33.63
2018-06-01T08:12:34.513Z,35.43
2018-06-01T08:15:01.922Z,29.80
2018-06-01T08:17:29.353Z,29.17
2018-06-01T08:19:56.745Z,30.70
2018-06-01T08:22:24.157Z,31.43
2018-06-01T08:24:51.550Z,28.93
2018-06-01T08:27:18.945Z,27.23
2018-06-01T08:29:46.349Z,32.70
2018-06-01T08:32:13.804Z,33.27
2018-06-01T08:34:41.199Z,29.73
2018-06-01T08:37:08.595Z,29.57
2018-06-01T08:39:36.025Z,26.53
2018-06-01T08:42:03.429Z,27.27
2018-06-01T08:44:30.859Z,28.40
2018-06-01T08:46:58.268Z,29.77
2018-06-01T08:49:25.660Z,21.37
2018-06-01T08:51:53.077Z,20.10
2018-06-01T08:54:20.480Z,22.50
2018-06-01T08:56:47.917Z,21.93
2018-06-01T08:59:15.382Z,24.60
2018-06-01T09:01:42.730Z,32.80
2018-06-01T09:04:10.138Z,32.20
2018-06-01T09:06:37.536Z,19.57
2018-06-01T09:09:05.682Z,21.40
2018-06-01T09:11:33.098Z,26.20
2018-06-01T09:14:00.584Z,28.40
2018-06-01T09:16:27.990Z,24.07
2018-06-01T09:18:55.434Z,38.10
2018-06-01T09:21:22.910Z,35.10
2018-06-01T09:23:50.309Z,26.87
2018-06-01T09:26:17.972Z,26.13
2018-06-01T09:28:45.385Z,33.70
2018-06-01T09:31:12.802Z,29.67
2018-06-01T09:33:40.252Z,27.87
2018-06-01T09:36:07.634Z,28.33
2018-06-01T09:38:35.066Z,29.90
2018-06-01T09:41:02.473Z,24.60
2018-06-01T09:43:29.893Z,23.80
2018-06-01T09:45:57.297Z,25.20
2018-06-01T09:48:24.701Z,27.67
2018-06-01T09:50:52.983Z,32.23
2018-06-01T09:53:20.373Z,27.73
2018-06-01T09:55:47.787Z,27.50
2018-06-01T09:58:15.201Z,27.90
2018-06-01T10:00:48.104Z,26.50
2018-06-01T10:03:15.505Z,23.43
2018-06-01T10:05:42.902Z,21.83
2018-06-01T10:08:10.309Z,20.03
2018-06-01T10:10:37.726Z,21.97
2018-06-01T10:13:05.133Z,20.57
2018-06-01T10:15:32.599Z,20.17
2018-06-01T10:17:59.940Z,20.47
2018-06-01T10:20:27.354Z,23.00
2018-06-01T10:22:54.766Z,21.80
2018-06-01T10:25:22.173Z,24.13
2018-06-01T10:27:49.565Z,26.07
2018-06-01T10:30:17.021Z,25.67
2018-06-01T10:32:44.660Z,27.43
2018-06-01T10:35:12.104Z,27.80
2018-06-01T10:37:39.492Z,29.40
2018-06-01T10:40:06.889Z,28.57
2018-06-01T10:42:34.339Z,25.97
2018-06-01T10:45:01.721Z,25.97
2018-06-01T10:47:29.130Z,26.60
2018-06-01T10:49:56.525Z,27.47
2018-06-01T10:52:24.267Z,23.87
2018-06-01T10:54:51.661Z,27.53
2018-06-01T10:57:19.072Z,25.27
2018-06-01T10:59:46.485Z,31.73
2018-06-01T11:02:13.909Z,35.87
2018-06-01T11:04:41.331Z,41.17
2018-06-01T11:07:08.713Z,48.70
2018-06-01T11:09:36.129Z,49.87
2018-06-01T11:12:03.529Z,56.53
2018-06-01T11:14:30.987Z,54.03
2018-06-01T11:16:58.349Z,47.70
2018-06-01T11:19:25.756Z,45.27
2018-06-01T11:21:53.169Z,54.17
2018-06-01T11:24:20.593Z,52.13
2018-06-01T11:26:48.010Z,51.93
2018-06-01T11:29:15.413Z,46.50
2018-06-01T11:31:42.845Z,46.03
2018-06-01T11:34:10.240Z,55.97
2018-06-01T11:36:37.637Z,56.73
2018-06-01T11:39:05.845Z,47.40
2018-06-01T11:41:33.241Z,51.97
2018-06-01T11:44:00.667Z,49.67
2018-06-01T11:46:28.064Z,56.87
2018-06-01T11:48:55.477Z,58.33
2018-06-01T11:51:22.929Z,52.27
2018-06-01T11:53:50.284Z,54.43
2018-06-01T11:56:17.678Z,58.83
2018-06-01T11:58:45.101Z,57.13
2018-06-01T12:01:12.509Z,55.87
2018-06-01T12:03:39.916Z,47.03
2018-06-01T12:06:07.326Z,40.17
2018-06-01T12:08:34.714Z,35.43
2018-06-01T12:11:02.496Z,32.83
2018-06-01T12:13:29.903Z,25.87
2018-06-01T12:15:57.329Z,21.07
2018-06-01T12:18:24.765Z,22.10
2018-06-01T12:20:52.894Z,22.00
2018-06-01T12:23:20.354Z,20.30
2018-06-01T12:25:47.717Z,20.23
2018-06-01T12:28:15.161Z,19.23
2018-06-01T12:30:42.557Z,17.50
2018-06-01T12:33:09.950Z,20.03
2018-06-01T12:35:37.371Z,13.23
2018-06-01T12:38:04.761Z,13.17
2018-06-01T12:40:32.173Z,11.37
2018-06-01T12:42:59.583Z,13.43
2018-06-01T12:45:26.991Z,11.67
2018-06-01T12:47:54.387Z,9.87
2018-06-01T12:50:21.793Z,11.30
2018-06-01T12:52:49.215Z,10.33
2018-06-01T12:55:16.601Z,9.57
2018-06-01T12:57:44.002Z,10.40
2018-06-01T13:00:11.407Z,10.87
2018-06-01T13:02:38.836Z,15.73
2018-06-01T13:05:06.233Z,14.53
2018-06-01T13:07:33.633Z,12.47
2018-06-01T13:10:01.057Z,14.50
2018-06-01T13:12:28.452Z,12.87
2018-06-01T13:14:55.905Z,12.80
2018-06-01T13:17:23.312Z,17.57
2018-06-01T13:19:50.773Z,15.70
2018-06-01T13:22:18.185Z,16.50
2018-06-01T13:24:45.586Z,13.27
2018-06-01T13:27:12.989Z,15.37
2018-06-01T13:29:40.389Z,19.20
2018-06-01T13:32:07.790Z,19.80
2018-06-01T13:34:35.197Z,24.00
2018-06-01T13:37:02.597Z,17.23
2018-06-01T13:39:30.013Z,16.17
2018-06-01T13:41:57.498Z,14.87
2018-06-01T13:44:24.873Z,16.03
2018-06-01T13:46:52.282Z,19.97
2018-06-01T13:49:19.681Z,20.20
2018-06-01T13:51:47.081Z,19.30
2018-06-01T13:54:14.500Z,22.53
2018-06-01T13:56:41.893Z,18.00
2018-06-01T13:59:09.361Z,19.07
2018-06-01T14:01:36.758Z,25.77
2018-06-01T14:04:04.169Z,20.70
2018-06-01T14:06:31.586Z,25.20
2018-06-01T14:08:59.093Z,21.87
2018-06-01T14:11:26.507Z,19.70
2018-06-01T14:13:54.183Z,22.27
2018-06-01T14:16:21.747Z,20.33
2018-06-01T14:18:49.146Z,25.07
2018-06-01T14:21:16.606Z,23.53
2018-06-01T14:23:44.005Z,24.87
2018-06-01T14:26:11.413Z,22.93
2018-06-01T14:28:38.825Z,27.23
2018-06-01T14:31:06.237Z,23.63
2018-06-01T14:33:33.633Z,28.53
2018-06-01T14:36:01.318Z,27.77
2018-06-01T14:38:28.716Z,31.67
2018-06-01T14:40:56.121Z,29.13
2018-06-01T14:43:23.522Z,25.60
2018-06-01T14:45:50.921Z,25.80
2018-06-01T14:48:18.333Z,27.30
2018-06-01T14:50:45.737Z,31.50
2018-06-01T14:53:13.174Z,30.90
2018-06-01T14:55:40.592Z,30.23
2018-06-01T14:58:07.988Z,25.27
2018-06-01T15:00:35.429Z,24.90
2018-06-01T15:03:02.824Z,28.37
2018-06-01T15:05:30.232Z,33.17
2018-06-01T15:07:57.637Z,37.33
2018-06-01T15:10:25.061Z,36.63
2018-06-01T15:12:52.461Z,41.23
2018-06-01T15:15:19.854Z,45.83
2018-06-01T15:17:47.265Z,43.70
2018-06-01T15:20:14.691Z,46.23
2018-06-01T15:22:42.073Z,46.43
2018-06-01T15:25:09.477Z,45.23
2018-06-01T15:27:36.877Z,46.07
2018-06-01T15:30:04.276Z,44.57
2018-06-01T15:32:31.686Z,42.63
2018-06-01T15:34:59.093Z,37.97
2018-06-01T15:37:26.521Z,33.53
2018-06-01T15:39:53.913Z,36.87
2018-06-01T15:42:21.317Z,42.17
2018-06-01T15:44:48.776Z,36.63
2018-06-01T15:47:16.241Z,36.73
2018-06-01T15:49:43.649Z,35.87
2018-06-01T15:52:11.054Z,34.00
2018-06-01T15:54:38.462Z,36.30
2018-06-01T15:57:05.860Z,32.07
2018-06-01T15:59:33.552Z,36.60
2018-06-01T16:02:01.020Z,34.03
2018-06-01T16:04:28.405Z,31.10
2018-06-01T16:06:55.842Z,37.27
2018-06-01T16:09:23.238Z,32.80
2018-06-01T16:11:50.939Z,35.77
2018-06-01T16:14:19.433Z,28.20
2018-06-01T16:16:47.215Z,26.53
2018-06-01T16:19:14.932Z,26.27
2018-06-01T16:21:42.422Z,28.80
2018-06-01T16:24:09.825Z,26.53
2018-06-01T16:26:37.229Z,24.63
2018-06-01T16:29:04.650Z,21.83
2018-06-01T16:31:32.090Z,20.70
2018-06-01T16:33:59.482Z,18.90
2018-06-01T16:36:26.899Z,18.10
2018-06-01T16:38:54.313Z,18.80
2018-06-01T16:41:21.714Z,14.17
2018-06-01T16:43:49.401Z,12.40
2018-06-01T16:46:16.826Z,13.13
2018-06-01T16:48:44.221Z,14.13
2018-06-01T16:51:11.631Z,14.33
2018-06-01T16:53:39.030Z,14.63
2018-06-01T16:56:06.445Z,13.40
2018-06-01T16:58:33.838Z,13.27
2018-06-01T17:01:01.249Z,14.97
2018-06-01T17:03:28.649Z,14.20
2018-06-01T17:05:56.045Z,14.13
2018-06-01T17:08:23.797Z,13.30
2018-06-01T17:10:51.209Z,12.90
2018-06-01T17:13:18.608Z,14.13
2018-06-01T17:15:46.042Z,11.97
2018-06-01T17:18:13.456Z,12.27
2018-06-01T17:20:40.856Z,11.80
2018-06-01T17:23:08.256Z,14.10
2018-06-01T17:25:35.688Z,13.07
2018-06-01T17:28:03.089Z,14.73
2018-06-01T17:30:30.486Z,15.33
2018-06-01T17:32:57.937Z,18.47
2018-06-01T17:35:25.352Z,15.80
2018-06-01T17:37:52.772Z,17.67
2018-06-01T17:40:20.161Z,17.93
2018-06-01T17:42:47.567Z,19.30
2018-06-01T17:45:15.009Z,19.63
2018-06-01T17:47:42.425Z,24.57
2018-06-01T17:50:09.834Z,20.07
2018-06-01T17:52:37.237Z,20.67
2018-06-01T17:55:04.716Z,24.07
2018-06-01T17:57:32.149Z,22.23
2018-06-01T17:59:59.605Z,26.53
2018-06-01T18:02:27.014Z,25.57
2018-06-01T18:04:55.022Z,23.90
2018-06-01T18:07:22.422Z,25.47
2018-06-01T18:09:49.841Z,33.07
2018-06-01T18:12:17.242Z,27.87
2018-06-01T18:14:44.670Z,32.40
2018-06-01T18:17:12.097Z,40.23
2018-06-01T18:19:39.505Z,34.57
2018-06-01T18:22:06.899Z,43.87
2018-06-01T18:24:34.297Z,40.37
2018-06-01T18:27:01.709Z,37.10
2018-06-01T18:29:29.106Z,43.93
2018-06-01T18:31:56.525Z,45.73
2018-06-01T18:34:23.926Z,41.40
2018-06-01T18:36:52.294Z,43.47
2018-06-01T18:39:19.705Z,47.57
2018-06-01T18:41:47.105Z,44.00
2018-06-01T18:44:14.509Z,43.50
2018-06-01T18:46:41.916Z,40.50
2018-06-01T18:49:09.309Z,39.70
2018-06-01T18:51:36.761Z,42.83
2018-06-01T18:54:04.351Z,53.07
2018-06-01T18:56:32.055Z,39.73
2018-06-01T18:58:59.474Z,49.37
2018-06-01T19:01:26.865Z,52.13
2018-06-01T19:03:54.303Z,44.03
2018-06-01T19:06:21.698Z,52.57
2018-06-01T19:08:49.419Z,55.87
2018-06-01T19:11:16.823Z,56.73
2018-06-01T19:13:44.263Z,54.03
2018-06-01T19:16:13.033Z,61.33
2018-06-01T19:18:40.426Z,58.00
2018-06-01T19:21:07.833Z,72.00
2018-06-01T19:23:35.243Z,60.33
2018-06-01T19:26:02.637Z,53.07
2018-06-01T19:28:30.358Z,63.10
2018-06-01T19:30:58.793Z,54.90
2018-06-01T19:33:26.230Z,57.60
2018-06-01T19:35:53.704Z,60.70
2018-06-01T19:38:21.106Z,64.13
2018-06-01T19:40:48.514Z,59.53
2018-06-01T19:43:15.965Z,63.63
2018-06-01T19:45:43.377Z,63.07
2018-06-01T19:48:10.773Z,59.60
2018-06-01T19:50:38.189Z,62.00
2018-06-01T19:53:05.593Z,64.50
2018-06-01T19:55:32.997Z,60.67
2018-06-01T19:58:00.405Z,71.67
2018-06-01T20:00:27.839Z,67.83
2018-06-01T20:02:55.257Z,74.80
2018-06-01T20:05:22.700Z,65.87
2018-06-01T20:07:50.102Z,76.43
2018-06-01T20:10:17.517Z,69.50
2018-06-01T20:12:44.922Z,83.50
2018-06-01T20:15:12.326Z,74.00
2018-06-01T20:17:39.738Z,71.97
2018-06-01T20:20:07.143Z,78.77
2018-06-01T20:22:34.571Z,75.40
2018-06-01T20:25:01.997Z,69.03
2018-06-01T20:27:29.389Z,80.03
2018-06-01T20:29:56.849Z,72.37
2018-06-01T20:32:24.213Z,86.07
2018-06-01T20:34:51.640Z,88.63
2018-06-01T20:37:19.064Z,73.33
2018-06-01T20:39:46.470Z,74.67
2018-06-01T20:42:13.882Z,86.77
2018-06-01T20:44:41.293Z,89.97
2018-06-01T20:47:08.722Z,74.03
2018-06-01T20:49:36.188Z,88.77
2018-06-01T20:52:03.599Z,75.53
2018-06-01T20:54:31.039Z,88.97
2018-06-01T20:56:58.450Z,79.10
2018-06-01T20:59:25.869Z,86.73
2018-06-01T21:01:53.285Z,82.30
2018-06-01T21:04:21.174Z,81.73
2018-06-01T21:06:48.617Z,83.03
2018-06-01T21:09:16.098Z,73.93
2018-06-01T21:11:43.511Z,77.03
2018-06-01T21:14:10.909Z,89.20
2018-06-01T21:16:38.337Z,83.10
2018-06-01T21:19:05.757Z,78.27
2018-06-01T21:21:33.215Z,93.33
2018-06-01T21:24:00.637Z,84.43
2018-06-01T21:26:28.099Z,82.90
2018-06-01T21:28:55.553Z,83.67
2018-06-01T21:31:22.989Z,91.50
2018-06-01T21:33:50.437Z,84.40
2018-06-01T21:36:17.851Z,79.00
2018-06-01T21:38:45.273Z,91.17
2018-06-01T21:41:12.706Z,95.70
2018-06-01T21:43:40.129Z,91.83
2018-06-01T21:46:08.193Z,82.77
2018-06-01T21:48:35.585Z,88.77
2018-06-01T21:51:03.007Z,87.50
2018-06-01T21:53:30.419Z,97.93
2018-06-01T21:55:58.143Z,95.43
2018-06-01T21:58:25.545Z,99.60
2018-06-01T22:00:52.948Z,90.83
2018-06-01T22:03:20.366Z,102.07
2018-06-01T22:05:47.779Z,102.83
2018-06-01T22:08:15.198Z,97.07
2018-06-01T22:10:42.602Z,98.17
2018-06-01T22:13:10.024Z,101.10
2018-06-01T22:15:37.417Z,93.60
2018-06-01T22:18:04.833Z,104.33
2018-06-01T22:20:32.241Z,98.97
2018-06-01T22:22:59.662Z,99.97
2018-06-01T22:25:27.153Z,93.77
2018-06-01T22:27:54.556Z,89.70
2018-06-01T22:30:21.969Z,99.40
2018-06-01T22:32:49.384Z,100.50
2018-06-01T22:35:16.809Z,99.73
2018-06-01T22:37:44.217Z,91.00
2018-06-01T22:40:11.644Z,93.27
2018-06-01T22:42:39.058Z,94.17
2018-06-01T22:45:06.465Z,81.43
2018-06-01T22:47:33.905Z,83.37
2018-06-01T22:50:01.330Z,100.43
2018-06-01T22:52:28.770Z,96.03
2018-06-01T22:54:56.181Z,84.67
2018-06-01T22:57:23.581Z,90.00
2018-06-01T22:59:51.001Z,90.30
2018-06-01T23:02:18.409Z,97.57
2018-06-01T23:04:45.813Z,100.00
2018-06-01T23:07:13.215Z,95.70
2018-06-01T23:09:40.635Z,89.43
2018-06-01T23:12:08.037Z,84.70
2018-06-01T23:14:35.454Z,104.47
2018-06-01T23:17:02.893Z,107.33
2018-06-01T23:19:30.298Z,101.27
2018-06-01T23:21:57.693Z,105.47
2018-06-01T23:24:25.097Z,106.30
2018-06-01T23:26:52.497Z,97.53
2018-06-01T23:29:19.913Z,101.97
2018-06-01T23:31:47.317Z,103.70
2018-06-01T23:34:14.729Z,109.67
2018-06-01T23:36:42.145Z,102.03
2018-06-01T23:39:09.566Z,102.40
2018-06-01T23:41:36.986Z,101.53
2018-06-01T23:44:04.413Z,102.57
2018-06-01T23:46:31.871Z,99.23
2018-06-01T23:48:59.283Z,102.93
2018-06-01T23:51:26.696Z,101.97
2018-06-01T23:53:54.097Z,106.33
2018-06-01T23:56:21.501Z,95.53
2018-06-01T23:58:48.947Z,90.80
